createdAt,value
2023-08-04T00:01:07.525Z,100.00
2023-08-04T00:03:36.634Z,100.00
2023-08-04T00:06:10.318Z,100.00
2023-08-04T00:08:39.292Z,100.00
2023-08-04T00:11:07.878Z,100.00
2023-08-04T00:13:36.997Z,100.00
2023-08-04T00:16:11.311Z,100.00
2023-08-04T00:18:40.569Z,100.00
2023-08-04T00:21:09.220Z,100.00
2023-08-04T00:23:38.100Z,100.00
2023-08-04T00:26:06.942Z,100.00
2023-08-04T00:28:35.753Z,100.00
2023-08-04T00:31:04.715Z,100.00
2023-08-04T00:33:35.257Z,100.00
2023-08-04T00:36:03.706Z,100.00
2023-08-04T00:38:32.365Z,100.00
2023-08-04T00:41:01.357Z,100.00
2023-08-04T00:43:30.324Z,100.00
2023-08-04T00:45:59.329Z,100.00
2023-08-04T00:48:28.330Z,100.00
2023-08-04T00:50:59.089Z,100.00
2023-08-04T00:53:27.884Z,100.00
2023-08-04T00:55:56.850Z,100.00
2023-08-04T00:58:31.797Z,100.00
2023-08-04T01:01:01.492Z,100.00
2023-08-04T01:03:30.771Z,100.00
2023-08-04T01:06:09.243Z,100.00
2023-08-04T01:08:37.932Z,100.00
2023-08-04T01:11:09.836Z,100.00
2023-08-04T01:13:40.229Z,100.00
2023-08-04T01:16:10.162Z,100.00
2023-08-04T01:18:39.324Z,100.00
2023-08-04T01:21:09.543Z,100.00
2023-08-04T01:23:38.766Z,100.00
2023-08-04T01:26:10.608Z,100.00
2023-08-04T01:28:41.638Z,100.00
2023-08-04T01:31:12.209Z,100.00
2023-08-04T01:33:41.701Z,100.00
2023-08-04T01:36:12.096Z,100.00
2023-08-04T01:38:41.037Z,100.00
2023-08-04T01:41:09.825Z,100.00
2023-08-04T01:43:41.256Z,100.00
2023-08-04T01:46:10.992Z,100.00
2023-08-04T01:48:40.142Z,100.00
2023-08-04T01:51:09.141Z,100.00
2023-08-04T01:53:39.526Z,100.00
2023-08-04T01:56:08.265Z,100.00
2023-08-04T01:58:37.311Z,100.00
2023-08-04T02:01:06.422Z,100.00
2023-08-04T02:03:36.337Z,100.00
2023-08-04T02:06:06.696Z,100.00
2023-08-04T02:08:35.484Z,100.00
2023-08-04T02:11:05.889Z,100.00
2023-08-04T02:13:34.720Z,100.00
2023-08-04T02:16:04.221Z,100.00
2023-08-04T02:18:32.739Z,100.00
2023-08-04T02:21:01.700Z,100.00
2023-08-04T02:23:34.840Z,100.00
2023-08-04T02:26:04.173Z,100.00
2023-08-04T02:28:34.672Z,100.00
2023-08-04T02:31:03.581Z,100.00
2023-08-04T02:33:33.930Z,100.00
2023-08-04T02:36:03.334Z,100.00
2023-08-04T02:38:32.135Z,100.00
2023-08-04T02:41:04.020Z,100.00
2023-08-04T02:43:34.102Z,100.00
2023-08-04T02:46:06.669Z,100.00
2023-08-04T02:48:35.630Z,100.00
2023-08-04T02:51:06.198Z,100.00
2023-08-04T02:53:35.842Z,100.00
2023-08-04T02:56:10.488Z,100.00
2023-08-04T02:58:40.938Z,100.00
2023-08-04T03:01:09.902Z,100.00
2023-08-04T03:03:38.741Z,100.00
2023-08-04T03:06:07.959Z,100.00
2023-08-04T03:08:36.497Z,100.00
2023-08-04T03:11:11.238Z,100.00
2023-08-04T03:13:41.547Z,100.00
2023-08-04T03:16:10.324Z,100.00
2023-08-04T03:18:39.390Z,100.00
2023-08-04T03:21:07.898Z,100.00
2023-08-04T03:23:37.056Z,100.00
2023-08-04T03:26:05.871Z,100.00
2023-08-04T03:28:34.903Z,100.00
2023-08-04T03:31:05.154Z,100.00
2023-08-04T03:33:34.130Z,100.00
2023-08-04T03:36:02.735Z,100.00
2023-08-04T03:38:32.095Z,100.00
2023-08-04T03:41:00.835Z,100.00
2023-08-04T03:43:29.614Z,100.00
2023-08-04T03:45:58.533Z,100.00
2023-08-04T03:48:29.022Z,100.00
2023-08-04T03:50:57.644Z,100.00
2023-08-04T03:53:26.653Z,100.00
2023-08-04T03:55:55.472Z,100.00
2023-08-04T03:58:24.347Z,100.00
2023-08-04T04:00:52.826Z,100.00
2023-08-04T04:03:21.934Z,100.00
2023-08-04T04:05:52.115Z,100.00
2023-08-04T04:08:20.882Z,100.00
2023-08-04T04:10:50.416Z,100.00
2023-08-04T04:13:19.265Z,100.00
2023-08-04T04:15:48.378Z,100.00
2023-08-04T04:18:17.831Z,100.00
2023-08-04T04:20:46.651Z,100.00
2023-08-04T04:23:17.126Z,100.00
2023-08-04T04:25:46.131Z,100.00
2023-08-04T04:28:15.115Z,100.00
2023-08-04T04:30:44.013Z,100.00
2023-08-04T04:33:13.118Z,100.00
2023-08-04T04:35:41.944Z,100.00
2023-08-04T04:38:10.568Z,100.00
2023-08-04T04:40:40.558Z,100.00
2023-08-04T04:43:09.219Z,100.00
2023-08-04T04:45:38.798Z,100.00
2023-08-04T04:48:07.771Z,100.00
2023-08-04T04:50:36.433Z,100.00
2023-08-04T04:53:05.272Z,100.00
2023-08-04T04:55:34.477Z,100.00
2023-08-04T04:58:05.015Z,100.00
2023-08-04T05:00:34.072Z,100.00
2023-08-04T05:03:05.804Z,100.00
2023-08-04T05:05:34.842Z,100.00
2023-08-04T05:08:05.231Z,100.00
2023-08-04T05:10:33.729Z,100.00
2023-08-04T05:13:02.435Z,100.00
2023-08-04T05:15:32.717Z,100.00
2023-08-04T05:18:01.533Z,100.00
2023-08-04T05:20:32.131Z,100.00
2023-08-04T05:23:01.174Z,100.00
2023-08-04T05:25:30.428Z,100.00
2023-08-04T05:27:59.137Z,100.00
2023-08-04T05:30:27.960Z,100.00
2023-08-04T05:32:58.628Z,100.00
2023-08-04T05:35:28.835Z,100.00
2023-08-04T05:37:57.634Z,100.00
2023-08-04T05:40:26.944Z,100.00
2023-08-04T05:42:55.795Z,100.00
2023-08-04T05:45:24.767Z,100.00
2023-08-04T05:47:53.661Z,100.00
2023-08-04T05:50:24.286Z,100.00
2023-08-04T05:52:52.921Z,100.00
2023-08-04T05:55:22.972Z,100.00
2023-08-04T05:57:52.641Z,100.00
2023-08-04T06:00:21.464Z,100.00
2023-08-04T06:02:50.580Z,100.00
2023-08-04T06:05:19.485Z,100.00
2023-08-04T06:07:50.607Z,100.00
2023-08-04T06:10:20.832Z,100.00
2023-08-04T06:12:49.944Z,100.00
2023-08-04T06:15:19.277Z,100.00
2023-08-04T06:17:48.729Z,100.00
2023-08-04T06:20:17.701Z,100.00
2023-08-04T06:22:50.324Z,100.00
2023-08-04T06:25:19.736Z,100.00
2023-08-04T06:27:48.219Z,100.00
2023-08-04T06:30:17.415Z,100.00
2023-08-04T06:32:48.484Z,100.00
2023-08-04T06:35:17.616Z,100.00
2023-08-04T06:37:46.528Z,100.00
2023-08-04T06:40:16.823Z,100.00
2023-08-04T06:42:45.295Z,100.00
2023-08-04T06:45:14.075Z,100.00
2023-08-04T06:47:42.834Z,100.00
2023-08-04T06:50:12.133Z,100.00
2023-08-04T06:52:40.321Z,100.00
2023-08-04T06:55:09.735Z,100.00
2023-08-04T06:57:40.011Z,100.00
2023-08-04T07:00:11.529Z,100.00
2023-08-04T07:02:41.924Z,100.00
2023-08-04T07:05:10.947Z,100.00
2023-08-04T07:07:40.304Z,100.00
2023-08-04T07:10:12.011Z,100.00
2023-08-04T07:12:42.760Z,100.00
2023-08-04T07:15:12.083Z,100.00
2023-08-04T07:17:43.619Z,100.00
2023-08-04T07:20:13.659Z,100.00
2023-08-04T07:22:43.020Z,100.00
2023-08-04T07:25:12.472Z,100.00
2023-08-04T07:27:43.516Z,100.00
2023-08-04T07:30:13.462Z,100.00
2023-08-04T07:32:42.365Z,100.00
2023-08-04T07:35:11.404Z,100.00
2023-08-04T07:37:40.795Z,100.00
2023-08-04T07:40:10.483Z,100.00
2023-08-04T07:42:39.992Z,100.00
2023-08-04T07:45:12.140Z,100.00
2023-08-04T07:47:41.076Z,100.00
2023-08-04T07:50:10.760Z,100.00
2023-08-04T07:52:39.934Z,97.53
2023-08-04T07:55:11.449Z,97.77
2023-08-04T07:57:40.716Z,96.91
2023-08-04T08:00:12.773Z,95.31
2023-08-04T08:02:41.681Z,93.60
2023-08-04T08:05:11.175Z,92.81
2023-08-04T08:07:46.001Z,90.61
2023-08-04T08:10:15.638Z,90.61
2023-08-04T08:12:44.494Z,89.80
2023-08-04T08:15:15.553Z,88.86
2023-08-04T08:17:44.603Z,86.37
2023-08-04T08:20:13.552Z,83.83
2023-08-04T08:22:42.695Z,82.98
2023-08-04T08:25:14.099Z,84.82
2023-08-04T08:27:43.199Z,92.34
2023-08-04T08:30:14.236Z,93.77
2023-08-04T08:32:43.194Z,94.96
2023-08-04T08:35:12.786Z,95.63
2023-08-04T08:37:41.670Z,99.58
2023-08-04T08:40:11.317Z,100.00
2023-08-04T08:42:40.735Z,100.00
2023-08-04T08:45:10.414Z,99.25
2023-08-04T08:47:44.787Z,100.00
2023-08-04T08:50:14.074Z,100.00
2023-08-04T08:52:44.339Z,100.00
2023-08-04T08:55:14.793Z,99.22
2023-08-04T08:57:43.659Z,97.83
2023-08-04T09:00:13.517Z,96.01
2023-08-04T09:02:44.768Z,96.48
2023-08-04T09:05:13.804Z,89.83
2023-08-04T09:07:43.527Z,89.73
2023-08-04T09:10:14.057Z,88.37
2023-08-04T09:12:46.582Z,87.77
2023-08-04T09:15:15.210Z,85.60
2023-08-04T09:17:46.543Z,87.23
2023-08-04T09:20:31.234Z,87.15
2023-08-04T09:23:04.230Z,85.34
2023-08-04T09:25:33.897Z,83.85
2023-08-04T09:28:32.109Z,85.28
2023-08-04T09:31:05.140Z,91.43
2023-08-04T09:33:36.269Z,96.64
2023-08-04T09:36:09.114Z,100.00
2023-08-04T09:38:38.991Z,100.00
2023-08-04T09:41:09.126Z,100.00
2023-08-04T09:43:38.049Z,100.00
2023-08-04T09:46:12.498Z,100.00
2023-08-04T09:48:43.271Z,100.00
2023-08-04T09:51:13.555Z,100.00
2023-08-04T09:53:46.328Z,100.00
2023-08-04T09:56:16.213Z,99.55
2023-08-04T09:58:45.658Z,100.00
2023-08-04T10:01:15.213Z,100.00
2023-08-04T10:03:46.192Z,100.00
2023-08-04T10:06:14.890Z,100.00
2023-08-04T10:08:43.426Z,100.00
2023-08-04T10:11:12.388Z,100.00
2023-08-04T10:13:43.248Z,100.00
2023-08-04T10:16:14.220Z,100.00
2023-08-04T10:18:55.275Z,100.00
2023-08-04T10:21:28.206Z,100.00
2023-08-04T10:23:57.528Z,100.00
2023-08-04T10:26:25.957Z,100.00
2023-08-04T10:29:10.946Z,100.00
2023-08-04T10:31:50.431Z,100.00
2023-08-04T10:34:27.824Z,100.00
2023-08-04T10:37:07.198Z,100.00
2023-08-04T10:39:38.064Z,100.00
2023-08-04T10:42:09.413Z,100.00
2023-08-04T10:44:53.797Z,100.00
2023-08-04T10:47:33.702Z,100.00
2023-08-04T10:50:05.735Z,100.00
2023-08-04T10:52:35.573Z,100.00
2023-08-04T10:55:06.205Z,100.00
2023-08-04T10:57:35.571Z,100.00
2023-08-04T11:00:07.006Z,100.00
2023-08-04T11:02:37.074Z,100.00
2023-08-04T11:05:13.175Z,100.00
2023-08-04T11:07:48.593Z,100.00
2023-08-04T11:10:18.935Z,100.00
2023-08-04T11:12:48.206Z,100.00
2023-08-04T11:15:24.831Z,100.00
2023-08-04T11:17:54.318Z,100.00
2023-08-04T11:20:32.700Z,100.00
2023-08-04T11:23:02.764Z,100.00
2023-08-04T11:25:35.211Z,100.00
2023-08-04T11:28:05.415Z,100.00
2023-08-04T11:30:38.866Z,100.00
2023-08-04T11:33:10.348Z,100.00
2023-08-04T11:35:41.170Z,100.00
2023-08-04T11:38:09.812Z,100.00
2023-08-04T11:40:39.562Z,100.00
2023-08-04T11:43:08.403Z,100.00
2023-08-04T11:45:37.620Z,100.00
2023-08-04T11:48:07.735Z,100.00
2023-08-04T11:50:37.486Z,100.00
2023-08-04T11:53:08.532Z,100.00
2023-08-04T11:55:37.274Z,100.00
2023-08-04T11:58:06.425Z,100.00
2023-08-04T12:00:36.357Z,100.00
2023-08-04T12:03:07.235Z,100.00
2023-08-04T12:05:39.849Z,100.00
2023-08-04T12:08:19.454Z,100.00
2023-08-04T12:11:03.074Z,100.00
2023-08-04T12:13:35.158Z,100.00
2023-08-04T12:16:04.586Z,100.00
2023-08-04T12:18:36.373Z,100.00
2023-08-04T12:21:06.195Z,100.00
2023-08-04T12:23:36.801Z,100.00
2023-08-04T12:26:06.032Z,100.00
2023-08-04T12:28:36.051Z,100.00
2023-08-04T12:31:15.462Z,100.00
2023-08-04T12:33:44.950Z,100.00
2023-08-04T12:36:13.626Z,100.00
2023-08-04T12:38:44.029Z,100.00
2023-08-04T12:41:12.569Z,100.00
2023-08-04T12:43:41.651Z,100.00
2023-08-04T12:46:10.463Z,100.00
2023-08-04T12:48:39.411Z,100.00
2023-08-04T12:51:08.471Z,100.00
2023-08-04T12:53:37.116Z,100.00
2023-08-04T12:56:07.797Z,100.00
2023-08-04T12:58:36.595Z,100.00
2023-08-04T13:01:05.555Z,100.00
2023-08-04T13:03:34.892Z,100.00
2023-08-04T13:06:05.876Z,100.00
2023-08-04T13:08:34.636Z,100.00
2023-08-04T13:11:03.863Z,100.00
2023-08-04T13:13:34.772Z,100.00
2023-08-04T13:16:03.883Z,100.00
2023-08-04T13:18:32.574Z,100.00
2023-08-04T13:21:04.891Z,100.00
2023-08-04T13:23:34.059Z,100.00
2023-08-04T13:26:05.753Z,100.00
2023-08-04T13:28:36.515Z,100.00
2023-08-04T13:31:07.415Z,100.00
2023-08-04T13:33:36.358Z,100.00
2023-08-04T13:36:06.052Z,100.00
2023-08-04T13:38:34.557Z,100.00
2023-08-04T13:41:03.410Z,100.00
2023-08-04T13:43:32.129Z,100.00
2023-08-04T13:46:04.452Z,100.00
2023-08-04T13:48:33.277Z,100.00
2023-08-04T13:51:16.362Z,100.00
2023-08-04T13:53:50.161Z,100.00
2023-08-04T13:56:19.412Z,100.00
2023-08-04T13:58:48.300Z,100.00
2023-08-04T14:01:19.118Z,100.00
2023-08-04T14:03:47.980Z,100.00
2023-08-04T14:06:16.936Z,100.00
2023-08-04T14:08:45.724Z,100.00
2023-08-04T14:11:14.372Z,100.00
2023-08-04T14:13:43.504Z,100.00
2023-08-04T14:16:12.802Z,100.00
2023-08-04T14:18:44.319Z,100.00
2023-08-04T14:21:13.181Z,99.21
2023-08-04T14:23:42.424Z,98.35
2023-08-04T14:26:10.923Z,98.80
2023-08-04T14:28:40.083Z,100.00
2023-08-04T14:31:09.256Z,100.00
2023-08-04T14:33:38.402Z,100.00
2023-08-04T14:36:08.739Z,99.01
2023-08-04T14:38:39.688Z,99.01
2023-08-04T14:41:08.565Z,97.63
2023-08-04T14:43:37.849Z,98.47
2023-08-04T14:46:11.667Z,98.44
2023-08-04T14:48:40.763Z,97.49
2023-08-04T14:51:12.101Z,97.20
2023-08-04T14:53:41.296Z,97.27
2023-08-04T14:56:11.990Z,96.21
2023-08-04T14:58:44.365Z,97.20
2023-08-04T15:01:13.920Z,97.05
2023-08-04T15:03:43.250Z,95.35
2023-08-04T15:06:17.680Z,96.07
2023-08-04T15:08:47.624Z,97.52
2023-08-04T15:11:17.042Z,97.12
2023-08-04T15:13:48.133Z,96.86
2023-08-04T15:16:17.461Z,95.70
2023-08-04T15:18:46.692Z,94.38
2023-08-04T15:21:17.596Z,94.95
2023-08-04T15:23:48.709Z,97.05
2023-08-04T15:26:18.034Z,97.85
2023-08-04T15:28:51.130Z,97.78
2023-08-04T15:31:20.067Z,97.18
2023-08-04T15:33:49.344Z,96.57
2023-08-04T15:36:19.935Z,97.58
2023-08-04T15:38:48.953Z,97.09
2023-08-04T15:41:18.355Z,98.61
2023-08-04T15:43:47.533Z,99.80
2023-08-04T15:46:16.201Z,99.91
2023-08-04T15:48:45.194Z,100.00
2023-08-04T15:51:14.185Z,100.00
2023-08-04T15:53:44.573Z,100.00
2023-08-04T15:56:13.273Z,100.00
2023-08-04T15:58:42.484Z,100.00
2023-08-04T16:01:11.325Z,100.00
2023-08-04T16:03:40.531Z,100.00
2023-08-04T16:06:10.133Z,100.00
2023-08-04T16:08:39.000Z,100.00
2023-08-04T16:11:09.900Z,100.00
2023-08-04T16:13:38.998Z,100.00
2023-08-04T16:16:09.248Z,100.00
2023-08-04T16:18:39.624Z,100.00
2023-08-04T16:21:09.316Z,100.00
2023-08-04T16:23:38.883Z,100.00
2023-08-04T16:26:10.350Z,100.00
2023-08-04T16:28:39.953Z,100.00
2023-08-04T16:31:08.804Z,100.00
2023-08-04T16:33:37.631Z,100.00
2023-08-04T16:36:07.180Z,100.00
2023-08-04T16:38:35.844Z,100.00
2023-08-04T16:41:05.223Z,100.00
2023-08-04T16:43:38.560Z,100.00
2023-08-04T16:46:08.272Z,100.00
2023-08-04T16:48:37.518Z,100.00
2023-08-04T16:51:07.064Z,100.00
2023-08-04T16:53:36.349Z,100.00
2023-08-04T16:56:07.188Z,100.00
2023-08-04T16:58:37.145Z,100.00
2023-08-04T17:01:06.548Z,100.00
2023-08-04T17:03:38.445Z,100.00
2023-08-04T17:06:12.563Z,100.00
2023-08-04T17:08:41.401Z,100.00
2023-08-04T17:11:10.488Z,100.00
2023-08-04T17:13:44.196Z,100.00
2023-08-04T17:16:13.896Z,100.00
2023-08-04T17:18:42.477Z,100.00
2023-08-04T17:21:11.197Z,100.00
2023-08-04T17:23:40.133Z,100.00
2023-08-04T17:26:10.248Z,100.00
2023-08-04T17:28:40.573Z,100.00
2023-08-04T17:31:10.766Z,100.00
2023-08-04T17:33:39.899Z,100.00
2023-08-04T17:36:08.970Z,100.00
2023-08-04T17:38:38.400Z,100.00
2023-08-04T17:41:07.594Z,100.00
2023-08-04T17:43:36.219Z,100.00
2023-08-04T17:46:08.332Z,100.00
2023-08-04T17:48:37.250Z,100.00
2023-08-04T17:51:05.966Z,100.00
2023-08-04T17:53:34.812Z,100.00
2023-08-04T17:56:04.356Z,100.00
2023-08-04T17:58:33.606Z,100.00
2023-08-04T18:01:03.056Z,100.00
2023-08-04T18:03:34.373Z,100.00
2023-08-04T18:06:04.827Z,100.00
2023-08-04T18:08:35.182Z,100.00
2023-08-04T18:11:04.616Z,100.00
2023-08-04T18:13:33.494Z,100.00
2023-08-04T18:16:03.564Z,100.00
2023-08-04T18:18:34.177Z,100.00
2023-08-04T18:21:03.147Z,100.00
2023-08-04T18:23:33.124Z,100.00
2023-08-04T18:26:02.652Z,100.00
2023-08-04T18:28:32.808Z,100.00
2023-08-04T18:31:01.641Z,100.00
2023-08-04T18:33:30.745Z,100.00
2023-08-04T18:36:01.324Z,100.00
2023-08-04T18:38:30.335Z,100.00
2023-08-04T18:40:59.037Z,100.00
2023-08-04T18:43:27.867Z,100.00
2023-08-04T18:46:00.356Z,100.00
2023-08-04T18:48:29.800Z,100.00
2023-08-04T18:50:58.785Z,100.00
2023-08-04T18:53:29.295Z,100.00
2023-08-04T18:55:58.205Z,100.00
2023-08-04T18:58:26.957Z,100.00
2023-08-04T19:00:56.983Z,100.00
2023-08-04T19:03:25.972Z,100.00
2023-08-04T19:05:55.060Z,100.00
2023-08-04T19:08:23.618Z,100.00
2023-08-04T19:10:54.607Z,100.00
2023-08-04T19:13:24.062Z,100.00
2023-08-04T19:15:53.085Z,100.00
2023-08-04T19:18:22.175Z,100.00
2023-08-04T19:20:52.688Z,100.00
2023-08-04T19:23:21.788Z,100.00
2023-08-04T19:25:51.079Z,100.00
2023-08-04T19:28:21.293Z,100.00
2023-08-04T19:30:50.510Z,100.00
2023-08-04T19:33:19.182Z,100.00
2023-08-04T19:35:48.424Z,100.00
2023-08-04T19:38:17.537Z,100.00
2023-08-04T19:40:53.640Z,100.00
2023-08-04T19:43:24.031Z,100.00
2023-08-04T19:46:01.316Z,100.00
2023-08-04T19:48:33.345Z,100.00
2023-08-04T19:51:04.055Z,100.00
2023-08-04T19:53:33.098Z,100.00
2023-08-04T19:56:09.296Z,100.00
2023-08-04T19:58:40.130Z,100.00
2023-08-04T20:01:10.125Z,100.00
2023-08-04T20:03:39.272Z,100.00
2023-08-04T20:06:08.792Z,100.00
2023-08-04T20:08:37.791Z,100.00
2023-08-04T20:11:08.074Z,100.00
2023-08-04T20:13:37.714Z,100.00
2023-08-04T20:16:12.042Z,100.00
2023-08-04T20:18:43.505Z,100.00
2023-08-04T20:21:12.436Z,100.00
2023-08-04T20:23:42.089Z,100.00
2023-08-04T20:26:13.181Z,100.00
2023-08-04T20:28:43.998Z,100.00
2023-08-04T20:31:17.782Z,100.00
2023-08-04T20:33:46.534Z,100.00
2023-08-04T20:36:16.512Z,100.00
2023-08-04T20:38:45.489Z,100.00
2023-08-04T20:41:16.479Z,100.00
2023-08-04T20:43:45.885Z,100.00
2023-08-04T20:46:19.442Z,100.00
2023-08-04T20:48:49.261Z,100.00
2023-08-04T20:51:17.841Z,100.00
2023-08-04T20:53:46.879Z,100.00
2023-08-04T20:56:15.840Z,100.00
2023-08-04T20:58:46.256Z,100.00
2023-08-04T21:01:16.770Z,100.00
2023-08-04T21:03:45.931Z,100.00
2023-08-04T21:06:15.249Z,100.00
2023-08-04T21:08:44.761Z,100.00
2023-08-04T21:11:19.761Z,100.00
2023-08-04T21:13:48.985Z,100.00
2023-08-04T21:16:19.257Z,100.00
2023-08-04T21:18:48.516Z,100.00
2023-08-04T21:21:17.800Z,100.00
2023-08-04T21:23:47.363Z,100.00
2023-08-04T21:26:19.538Z,100.00
2023-08-04T21:28:49.235Z,100.00
2023-08-04T21:31:21.801Z,100.00
2023-08-04T21:33:52.022Z,100.00
2023-08-04T21:36:22.685Z,100.00
2023-08-04T21:38:58.228Z,100.00
2023-08-04T21:41:30.245Z,100.00
2023-08-04T21:44:00.166Z,100.00
2023-08-04T21:46:33.870Z,100.00
2023-08-04T21:49:03.388Z,100.00
2023-08-04T21:51:33.825Z,100.00
2023-08-04T21:54:03.445Z,100.00
2023-08-04T21:56:33.047Z,100.00
2023-08-04T21:59:04.720Z,100.00
2023-08-04T22:01:35.571Z,100.00
2023-08-04T22:04:06.050Z,100.00
2023-08-04T22:06:35.606Z,100.00
2023-08-04T22:09:04.715Z,100.00
2023-08-04T22:11:33.661Z,100.00
2023-08-04T22:14:03.258Z,100.00
2023-08-04T22:16:32.116Z,100.00
2023-08-04T22:19:02.637Z,100.00
2023-08-04T22:21:31.945Z,100.00
2023-08-04T22:24:01.371Z,100.00
2023-08-04T22:26:30.630Z,100.00
2023-08-04T22:28:59.872Z,100.00
2023-08-04T22:31:28.871Z,100.00
2023-08-04T22:33:58.053Z,100.00
2023-08-04T22:36:28.650Z,100.00
2023-08-04T22:38:57.850Z,100.00
2023-08-04T22:41:27.139Z,100.00
2023-08-04T22:43:56.130Z,100.00
2023-08-04T22:46:25.203Z,100.00
2023-08-04T22:48:54.375Z,100.00
2023-08-04T22:51:28.765Z,100.00
2023-08-04T22:53:59.283Z,100.00
2023-08-04T22:56:29.940Z,100.00
2023-08-04T22:59:01.546Z,100.00
2023-08-04T23:01:30.842Z,100.00
2023-08-04T23:03:59.975Z,100.00
2023-08-04T23:06:28.744Z,100.00
2023-08-04T23:08:59.200Z,100.00
2023-08-04T23:11:28.089Z,100.00
2023-08-04T23:13:57.415Z,100.00
2023-08-04T23:16:26.384Z,100.00
2023-08-04T23:18:55.379Z,100.00
2023-08-04T23:21:23.928Z,100.00
2023-08-04T23:23:54.721Z,100.00
2023-08-04T23:26:24.934Z,100.00
2023-08-04T23:28:53.988Z,100.00
2023-08-04T23:31:22.661Z,100.00
2023-08-04T23:33:51.521Z,100.00
2023-08-04T23:36:20.187Z,100.00
2023-08-04T23:38:48.992Z,100.00
2023-08-04T23:41:17.665Z,100.00
2023-08-04T23:43:48.052Z,100.00
2023-08-04T23:46:16.819Z,100.00
2023-08-04T23:48:45.912Z,100.00
2023-08-04T23:51:14.667Z,100.00
2023-08-04T23:53:43.789Z,100.00
2023-08-04T23:56:12.269Z,100.00
2023-08-04T23:58:41.773Z,100.00
